sensor_id;sensor_type;location;lat;lon;timestamp;pressure;altitude;pressure_sealevel;temperature;humidity
37878;BME280;23715;53.652;8.516;2022-10-31T00:00:13;101976.67;;;19.63;100.00
37878;BME280;23715;53.652;8.516;2022-10-31T00:05:15;101978.05;;;19.98;100.00
37878;BME280;23715;53.652;8.516;2022-10-31T00:10:15;101973.31;;;19.69;100.00
37878;BME280;23715;53.652;8.516;2022-10-31T00:15:15;101997.56;;;19.77;100.00
37878;BME280;23715;53.652;8.516;2022-10-31T00:20:16;101994.96;;;20.05;100.00
37878;BME280;23715;53.652;8.516;2022-10-31T00:25:16;101997.31;;;19.92;100.00
37878;BME280;23715;53.652;8.516;2022-10-31T00:30:16;102007.13;;;19.77;100.00
37878;BME280;23715;53.652;8.516;2022-10-31T00:35:17;102017.44;;;19.30;100.00
37878;BME280;23715;53.652;8.516;2022-10-31T00:40:16;102027.42;;;18.96;100.00
37878;BME280;23715;53.652;8.516;2022-10-31T00:45:17;102028.36;;;19.35;100.00
37878;BME280;23715;53.652;8.516;2022-10-31T00:50:17;102041.33;;;19.67;100.00
37878;BME280;23715;53.652;8.516;2022-10-31T00:55:18;102043.81;;;19.78;100.00
37878;BME280;23715;53.652;8.516;2022-10-31T01:00:18;102048.16;;;19.97;100.00
37878;BME280;23715;53.652;8.516;2022-10-31T01:05:19;102039.94;;;19.89;100.00
37878;BME280;23715;53.652;8.516;2022-10-31T01:10:19;102048.11;;;19.81;100.00
37878;BME280;23715;53.652;8.516;2022-10-31T01:15:22;102051.31;;;19.76;100.00
37878;BME280;23715;53.652;8.516;2022-10-31T01:20:22;102059.03;;;19.81;100.00
37878;BME280;23715;53.652;8.516;2022-10-31T01:25:23;102062.86;;;20.00;100.00
37878;BME280;23715;53.652;8.516;2022-10-31T01:30:23;102058.34;;;19.79;100.00
37878;BME280;23715;53.652;8.516;2022-10-31T01:35:24;102056.53;;;19.65;100.00
37878;BME280;23715;53.652;8.516;2022-10-31T01:40:28;102057.17;;;19.63;100.00
37878;BME280;23715;53.652;8.516;2022-10-31T01:45:26;102051.09;;;19.69;100.00
37878;BME280;23715;53.652;8.516;2022-10-31T01:50:32;102056.16;;;19.60;100.00
37878;BME280;23715;53.652;8.516;2022-10-31T01:55:37;102052.89;;;19.83;100.00
37878;BME280;23715;53.652;8.516;2022-10-31T02:00:38;102040.50;;;19.70;100.00
37878;BME280;23715;53.652;8.516;2022-10-31T02:05:39;102053.52;;;19.77;100.00
37878;BME280;23715;53.652;8.516;2022-10-31T02:10:43;102054.95;;;19.85;100.00
37878;BME280;23715;53.652;8.516;2022-10-31T02:15:45;102060.58;;;19.87;100.00
37878;BME280;23715;53.652;8.516;2022-10-31T02:31:13;102061.89;;;19.75;100.00
37878;BME280;23715;53.652;8.516;2022-10-31T02:41:34;102072.14;;;19.77;100.00
37878;BME280;23715;53.652;8.516;2022-10-31T02:47:23;102070.28;;;19.86;100.00
37878;BME280;23715;53.652;8.516;2022-10-31T02:51:39;102077.16;;;19.64;100.00
37878;BME280;23715;53.652;8.516;2022-10-31T02:56:41;102080.13;;;19.75;100.00
37878;BME280;23715;53.652;8.516;2022-10-31T03:07:23;102090.64;;;19.65;100.00
37878;BME280;23715;53.652;8.516;2022-10-31T03:12:33;102088.55;;;19.63;100.00
37878;BME280;23715;53.652;8.516;2022-10-31T03:17:45;102096.26;;;19.64;100.00
37878;BME280;23715;53.652;8.516;2022-10-31T03:22:43;102099.84;;;19.68;100.00
37878;BME280;23715;53.652;8.516;2022-10-31T03:27:46;102104.37;;;19.56;100.00
37878;BME280;23715;53.652;8.516;2022-10-31T03:32:55;102097.28;;;19.67;100.00
37878;BME280;23715;53.652;8.516;2022-10-31T03:37:54;102097.62;;;19.64;100.00
37878;BME280;23715;53.652;8.516;2022-10-31T03:43:03;102098.75;;;19.57;100.00
37878;BME280;23715;53.652;8.516;2022-10-31T03:47:59;102100.41;;;19.50;100.00
37878;BME280;23715;53.652;8.516;2022-10-31T03:53:13;102102.42;;;19.44;100.00
37878;BME280;23715;53.652;8.516;2022-10-31T03:58:18;102109.91;;;19.42;100.00
37878;BME280;23715;53.652;8.516;2022-10-31T04:03:22;102113.74;;;19.53;100.00
37878;BME280;23715;53.652;8.516;2022-10-31T04:08:23;102109.50;;;19.33;100.00
37878;BME280;23715;53.652;8.516;2022-10-31T04:13:27;102116.11;;;19.08;100.00
37878;BME280;23715;53.652;8.516;2022-10-31T04:18:36;102121.69;;;19.02;100.00
37878;BME280;23715;53.652;8.516;2022-10-31T04:23:36;102119.59;;;18.96;100.00
37878;BME280;23715;53.652;8.516;2022-10-31T04:28:43;102117.63;;;19.06;100.00
37878;BME280;23715;53.652;8.516;2022-10-31T04:33:45;102116.77;;;18.84;100.00
37878;BME280;23715;53.652;8.516;2022-10-31T04:38:45;102121.67;;;18.80;100.00
37878;BME280;23715;53.652;8.516;2022-10-31T04:43:47;102117.13;;;18.89;100.00
37878;BME280;23715;53.652;8.516;2022-10-31T04:48:48;102119.06;;;18.79;100.00
37878;BME280;23715;53.652;8.516;2022-10-31T04:53:49;102126.47;;;19.04;100.00
37878;BME280;23715;53.652;8.516;2022-10-31T04:58:51;102140.97;;;18.87;100.00
37878;BME280;23715;53.652;8.516;2022-10-31T05:03:52;102132.28;;;18.73;100.00
37878;BME280;23715;53.652;8.516;2022-10-31T05:08:52;102136.69;;;18.84;100.00
37878;BME280;23715;53.652;8.516;2022-10-31T05:13:53;102122.52;;;18.67;100.00
37878;BME280;23715;53.652;8.516;2022-10-31T05:19:11;102124.62;;;18.73;100.00
37878;BME280;23715;53.652;8.516;2022-10-31T05:24:30;102117.73;;;18.65;100.00
37878;BME280;23715;53.652;8.516;2022-10-31T05:29:30;102122.39;;;18.41;100.00
37878;BME280;23715;53.652;8.516;2022-10-31T05:34:33;102123.96;;;18.29;100.00
37878;BME280;23715;53.652;8.516;2022-10-31T05:39:35;102123.23;;;18.00;100.00
37878;BME280;23715;53.652;8.516;2022-10-31T05:44:37;102132.95;;;17.79;100.00
37878;BME280;23715;53.652;8.516;2022-10-31T05:49:48;102141.02;;;17.51;100.00
37878;BME280;23715;53.652;8.516;2022-10-31T05:55:08;102142.78;;;17.66;100.00
37878;BME280;23715;53.652;8.516;2022-10-31T06:00:10;102143.86;;;17.69;100.00
37878;BME280;23715;53.652;8.516;2022-10-31T06:05:13;102160.42;;;17.52;100.00
37878;BME280;23715;53.652;8.516;2022-10-31T06:10:13;102158.79;;;17.35;100.00
37878;BME280;23715;53.652;8.516;2022-10-31T06:15:17;102157.95;;;17.25;100.00
37878;BME280;23715;53.652;8.516;2022-10-31T06:20:18;102160.24;;;17.40;100.00
37878;BME280;23715;53.652;8.516;2022-10-31T06:25:20;102174.48;;;17.47;100.00
37878;BME280;23715;53.652;8.516;2022-10-31T06:30:22;102170.87;;;17.66;100.00
37878;BME280;23715;53.652;8.516;2022-10-31T06:35:22;102182.27;;;17.46;100.00
37878;BME280;23715;53.652;8.516;2022-10-31T06:40:23;102184.27;;;17.44;100.00
37878;BME280;23715;53.652;8.516;2022-10-31T06:45:25;102192.70;;;16.92;100.00
37878;BME280;23715;53.652;8.516;2022-10-31T06:50:43;102201.72;;;17.22;100.00
37878;BME280;23715;53.652;8.516;2022-10-31T06:55:45;102206.37;;;17.35;100.00
37878;BME280;23715;53.652;8.516;2022-10-31T07:00:45;102223.98;;;17.12;100.00
37878;BME280;23715;53.652;8.516;2022-10-31T07:05:46;102225.20;;;17.23;100.00
37878;BME280;23715;53.652;8.516;2022-10-31T07:10:52;102224.35;;;17.32;100.00
37878;BME280;23715;53.652;8.516;2022-10-31T07:15:58;102231.04;;;17.09;100.00
37878;BME280;23715;53.652;8.516;2022-10-31T07:20:56;102229.98;;;17.06;100.00
37878;BME280;23715;53.652;8.516;2022-10-31T07:25:58;102214.34;;;16.88;100.00
37878;BME280;23715;53.652;8.516;2022-10-31T07:31:00;102214.34;;;16.88;100.00
37878;BME280;23715;53.652;8.516;2022-10-31T07:36:01;102224.10;;;17.01;100.00
37878;BME280;23715;53.652;8.516;2022-10-31T07:41:02;102228.48;;;16.82;100.00
37878;BME280;23715;53.652;8.516;2022-10-31T07:46:05;102232.52;;;16.97;100.00
37878;BME280;23715;53.652;8.516;2022-10-31T07:51:16;102242.34;;;16.79;100.00
37878;BME280;23715;53.652;8.516;2022-10-31T07:56:30;102229.47;;;16.96;100.00
37878;BME280;23715;53.652;8.516;2022-10-31T08:01:33;102220.80;;;16.97;100.00
37878;BME280;23715;53.652;8.516;2022-10-31T08:06:52;102220.34;;;16.82;100.00
37878;BME280;23715;53.652;8.516;2022-10-31T08:12:01;102225.20;;;16.88;100.00
37878;BME280;23715;53.652;8.516;2022-10-31T08:17:04;102221.97;;;17.14;100.00
37878;BME280;23715;53.652;8.516;2022-10-31T08:22:06;102224.77;;;17.28;100.00
37878;BME280;23715;53.652;8.516;2022-10-31T08:27:06;102227.14;;;17.17;100.00
37878;BME280;23715;53.652;8.516;2022-10-31T08:32:06;102217.25;;;17.06;100.00
37878;BME280;23715;53.652;8.516;2022-10-31T08:37:20;102217.25;;;17.06;100.00
37878;BME280;23715;53.652;8.516;2022-10-31T08:42:22;102214.97;;;17.11;100.00
37878;BME280;23715;53.652;8.516;2022-10-31T08:47:24;102216.53;;;17.14;100.00
37878;BME280;23715;53.652;8.516;2022-10-31T08:52:25;102223.27;;;17.29;100.00
37878;BME280;23715;53.652;8.516;2022-10-31T08:57:27;102227.72;;;17.21;100.00
37878;BME280;23715;53.652;8.516;2022-10-31T09:02:29;102222.11;;;17.22;100.00
37878;BME280;23715;53.652;8.516;2022-10-31T09:07:31;102230.91;;;17.20;100.00
37878;BME280;23715;53.652;8.516;2022-10-31T09:12:31;102227.58;;;17.42;100.00
37878;BME280;23715;53.652;8.516;2022-10-31T09:17:51;102233.36;;;17.43;100.00
37878;BME280;23715;53.652;8.516;2022-10-31T09:23:01;102238.29;;;17.33;100.00
37878;BME280;23715;53.652;8.516;2022-10-31T09:28:04;102237.88;;;17.28;100.00
37878;BME280;23715;53.652;8.516;2022-10-31T09:33:09;102224.70;;;17.33;100.00
37878;BME280;23715;53.652;8.516;2022-10-31T09:38:11;102225.98;;;17.49;100.00
37878;BME280;23715;53.652;8.516;2022-10-31T09:54:26;102217.59;;;17.95;100.00
37878;BME280;23715;53.652;8.516;2022-10-31T09:59:31;102223.17;;;17.84;100.00
37878;BME280;23715;53.652;8.516;2022-10-31T10:09:51;102237.47;;;18.05;100.00
37878;BME280;23715;53.652;8.516;2022-10-31T10:25:28;102221.30;;;18.55;100.00
37878;BME280;23715;53.652;8.516;2022-10-31T10:35:33;102223.34;;;18.67;100.00
37878;BME280;23715;53.652;8.516;2022-10-31T10:40:34;102218.13;;;18.87;100.00
37878;BME280;23715;53.652;8.516;2022-10-31T10:45:34;102206.42;;;19.05;100.00
37878;BME280;23715;53.652;8.516;2022-10-31T10:50:54;102202.66;;;19.06;100.00
37878;BME280;23715;53.652;8.516;2022-10-31T10:55:58;102199.74;;;19.21;100.00
37878;BME280;23715;53.652;8.516;2022-10-31T11:00:58;102205.34;;;19.74;100.00
37878;BME280;23715;53.652;8.516;2022-10-31T11:05:58;102195.91;;;19.90;100.00
37878;BME280;23715;53.652;8.516;2022-10-31T11:21:30;102170.39;;;19.59;100.00
37878;BME280;23715;53.652;8.516;2022-10-31T11:26:32;102182.30;;;19.72;100.00
37878;BME280;23715;53.652;8.516;2022-10-31T11:31:35;102182.42;;;19.70;100.00
37878;BME280;23715;53.652;8.516;2022-10-31T11:36:41;102180.78;;;19.74;100.00
37878;BME280;23715;53.652;8.516;2022-10-31T11:41:42;102171.61;;;19.79;100.00
37878;BME280;23715;53.652;8.516;2022-10-31T11:46:54;102165.84;;;19.64;100.00
37878;BME280;23715;53.652;8.516;2022-10-31T11:51:57;102156.91;;;19.76;100.00
37878;BME280;23715;53.652;8.516;2022-10-31T11:56:57;102159.56;;;19.67;100.00
37878;BME280;23715;53.652;8.516;2022-10-31T12:02:00;102156.66;;;19.91;100.00
37878;BME280;23715;53.652;8.516;2022-10-31T12:07:01;102160.56;;;19.66;100.00
37878;BME280;23715;53.652;8.516;2022-10-31T12:12:10;102144.55;;;19.67;100.00
37878;BME280;23715;53.652;8.516;2022-10-31T12:17:21;102134.25;;;19.61;100.00
37878;BME280;23715;53.652;8.516;2022-10-31T12:27:58;102140.56;;;19.36;100.00
37878;BME280;23715;53.652;8.516;2022-10-31T12:33:11;102146.59;;;19.25;100.00
37878;BME280;23715;53.652;8.516;2022-10-31T12:59:38;102109.31;;;19.30;100.00
37878;BME280;23715;53.652;8.516;2022-10-31T13:04:55;102100.84;;;19.15;100.00
37878;BME280;23715;53.652;8.516;2022-10-31T13:10:02;102087.00;;;19.79;100.00
37878;BME280;23715;53.652;8.516;2022-10-31T13:20:32;102053.58;;;19.85;100.00
37878;BME280;23715;53.652;8.516;2022-10-31T13:25:40;102031.78;;;20.01;100.00
37878;BME280;23715;53.652;8.516;2022-10-31T13:30:41;102016.19;;;19.77;100.00
37878;BME280;23715;53.652;8.516;2022-10-31T13:36:05;101989.75;;;19.82;100.00
37878;BME280;23715;53.652;8.516;2022-10-31T13:46:55;101989.58;;;19.49;100.00
37878;BME280;23715;53.652;8.516;2022-10-31T13:52:29;101995.13;;;19.05;100.00
37878;BME280;23715;53.652;8.516;2022-10-31T13:57:43;102002.18;;;19.20;100.00
37878;BME280;23715;53.652;8.516;2022-10-31T14:02:52;101994.65;;;19.40;100.00
37878;BME280;23715;53.652;8.516;2022-10-31T14:07:54;101983.36;;;19.35;100.00
37878;BME280;23715;53.652;8.516;2022-10-31T14:13:17;101984.12;;;19.49;100.00
37878;BME280;23715;53.652;8.516;2022-10-31T14:18:37;101974.20;;;19.74;100.00
37878;BME280;23715;53.652;8.516;2022-10-31T14:23:39;101964.91;;;19.63;100.00
37878;BME280;23715;53.652;8.516;2022-10-31T14:28:42;101955.41;;;19.71;100.00
37878;BME280;23715;53.652;8.516;2022-10-31T14:33:42;101940.63;;;19.47;100.00
37878;BME280;23715;53.652;8.516;2022-10-31T14:39:04;101929.19;;;19.44;100.00
37878;BME280;23715;53.652;8.516;2022-10-31T14:49:37;101900.92;;;19.53;100.00
37878;BME280;23715;53.652;8.516;2022-10-31T14:54:38;101901.25;;;19.50;100.00
37878;BME280;23715;53.652;8.516;2022-10-31T14:59:41;101916.77;;;19.49;100.00
37878;BME280;23715;53.652;8.516;2022-10-31T15:04:46;101913.68;;;19.83;100.00
37878;BME280;23715;53.652;8.516;2022-10-31T15:10:05;101906.29;;;19.71;100.00
37878;BME280;23715;53.652;8.516;2022-10-31T15:15:16;101899.25;;;19.60;100.00
37878;BME280;23715;53.652;8.516;2022-10-31T15:20:21;101889.19;;;19.65;100.00
37878;BME280;23715;53.652;8.516;2022-10-31T15:25:28;101878.78;;;19.56;100.00
37878;BME280;23715;53.652;8.516;2022-10-31T15:30:29;101876.66;;;19.34;100.00
37878;BME280;23715;53.652;8.516;2022-10-31T15:35:30;101877.72;;;19.45;100.00
37878;BME280;23715;53.652;8.516;2022-10-31T15:40:31;101883.85;;;19.43;100.00
37878;BME280;23715;53.652;8.516;2022-10-31T15:45:32;101882.52;;;19.55;100.00
37878;BME280;23715;53.652;8.516;2022-10-31T15:50:38;101894.77;;;19.47;100.00
37878;BME280;23715;53.652;8.516;2022-10-31T15:55:45;101899.88;;;19.46;100.00
37878;BME280;23715;53.652;8.516;2022-10-31T16:00:42;101887.89;;;19.35;100.00
37878;BME280;23715;53.652;8.516;2022-10-31T16:05:49;101869.84;;;19.38;100.00
37878;BME280;23715;53.652;8.516;2022-10-31T16:10:50;101852.97;;;19.38;100.00
37878;BME280;23715;53.652;8.516;2022-10-31T16:15:54;101870.52;;;19.31;100.00
37878;BME280;23715;53.652;8.516;2022-10-31T16:20:55;101869.38;;;19.12;100.00
37878;BME280;23715;53.652;8.516;2022-10-31T16:25:56;101871.17;;;18.95;100.00
37878;BME280;23715;53.652;8.516;2022-10-31T16:30:57;101850.90;;;18.89;100.00
37878;BME280;23715;53.652;8.516;2022-10-31T16:35:58;101850.61;;;18.75;100.00
37878;BME280;23715;53.652;8.516;2022-10-31T16:41:01;101858.11;;;18.77;100.00
37878;BME280;23715;53.652;8.516;2022-10-31T16:46:04;101857.31;;;18.80;100.00
37878;BME280;23715;53.652;8.516;2022-10-31T16:51:07;101855.23;;;18.78;100.00
37878;BME280;23715;53.652;8.516;2022-10-31T16:56:16;101850.27;;;18.78;100.00
37878;BME280;23715;53.652;8.516;2022-10-31T17:01:17;101831.33;;;18.72;100.00
37878;BME280;23715;53.652;8.516;2022-10-31T17:06:18;101807.96;;;18.61;100.00
37878;BME280;23715;53.652;8.516;2022-10-31T17:11:21;101795.44;;;18.46;100.00
37878;BME280;23715;53.652;8.516;2022-10-31T17:16:21;101795.20;;;18.40;100.00
37878;BME280;23715;53.652;8.516;2022-10-31T17:21:23;101802.75;;;18.20;100.00
37878;BME280;23715;53.652;8.516;2022-10-31T17:26:26;101807.96;;;18.35;100.00
37878;BME280;23715;53.652;8.516;2022-10-31T17:31:27;101804.72;;;18.36;100.00
37878;BME280;23715;53.652;8.516;2022-10-31T17:36:27;101805.03;;;18.59;100.00
37878;BME280;23715;53.652;8.516;2022-10-31T17:41:27;101799.87;;;18.51;100.00
37878;BME280;23715;53.652;8.516;2022-10-31T17:46:28;101796.68;;;18.30;100.00
37878;BME280;23715;53.652;8.516;2022-10-31T17:51:28;101788.92;;;18.39;100.00
37878;BME280;23715;53.652;8.516;2022-10-31T17:56:28;101779.67;;;18.32;100.00
37878;BME280;23715;53.652;8.516;2022-10-31T18:01:29;101778.68;;;18.11;100.00
37878;BME280;23715;53.652;8.516;2022-10-31T18:06:29;101763.14;;;18.25;100.00
37878;BME280;23715;53.652;8.516;2022-10-31T18:11:30;101745.50;;;18.38;100.00
37878;BME280;23715;53.652;8.516;2022-10-31T18:16:30;101730.64;;;18.28;100.00
37878;BME280;23715;53.652;8.516;2022-10-31T18:21:30;101729.16;;;18.11;100.00
37878;BME280;23715;53.652;8.516;2022-10-31T18:26:32;101726.14;;;17.92;100.00
37878;BME280;23715;53.652;8.516;2022-10-31T18:31:31;101742.85;;;18.20;100.00
37878;BME280;23715;53.652;8.516;2022-10-31T18:36:36;101733.77;;;18.37;100.00
37878;BME280;23715;53.652;8.516;2022-10-31T18:41:40;101708.00;;;18.58;100.00
37878;BME280;23715;53.652;8.516;2022-10-31T18:46:40;101690.83;;;18.42;100.00
37878;BME280;23715;53.652;8.516;2022-10-31T18:51:41;101690.83;;;18.65;100.00
37878;BME280;23715;53.652;8.516;2022-10-31T18:56:41;101684.84;;;18.58;100.00
37878;BME280;23715;53.652;8.516;2022-10-31T19:01:43;101684.16;;;18.60;100.00
37878;BME280;23715;53.652;8.516;2022-10-31T19:06:43;101678.07;;;18.74;100.00
37878;BME280;23715;53.652;8.516;2022-10-31T19:11:44;101675.02;;;18.73;100.00
37878;BME280;23715;53.652;8.516;2022-10-31T19:16:44;101666.89;;;18.81;100.00
37878;BME280;23715;53.652;8.516;2022-10-31T19:21:45;101649.54;;;18.86;100.00
37878;BME280;23715;53.652;8.516;2022-10-31T19:26:46;101633.70;;;18.90;100.00
37878;BME280;23715;53.652;8.516;2022-10-31T19:31:46;101636.87;;;18.77;100.00
37878;BME280;23715;53.652;8.516;2022-10-31T19:36:47;101633.92;;;18.54;100.00
37878;BME280;23715;53.652;8.516;2022-10-31T19:41:47;101622.20;;;18.70;100.00
37878;BME280;23715;53.652;8.516;2022-10-31T19:46:47;101614.03;;;18.66;100.00
37878;BME280;23715;53.652;8.516;2022-10-31T19:51:48;101601.78;;;18.74;100.00
37878;BME280;23715;53.652;8.516;2022-10-31T19:56:49;101588.58;;;18.96;100.00
37878;BME280;23715;53.652;8.516;2022-10-31T20:01:49;101575.63;;;18.89;100.00
37878;BME280;23715;53.652;8.516;2022-10-31T20:06:50;101554.50;;;19.00;100.00
37878;BME280;23715;53.652;8.516;2022-10-31T20:11:51;101540.69;;;18.85;100.00
37878;BME280;23715;53.652;8.516;2022-10-31T20:16:52;101520.72;;;18.56;100.00
37878;BME280;23715;53.652;8.516;2022-10-31T20:21:53;101521.73;;;18.59;100.00
37878;BME280;23715;53.652;8.516;2022-10-31T20:26:55;101519.67;;;18.40;100.00
37878;BME280;23715;53.652;8.516;2022-10-31T20:31:56;101521.50;;;18.23;100.00
37878;BME280;23715;53.652;8.516;2022-10-31T20:36:56;101513.30;;;18.19;100.00
37878;BME280;23715;53.652;8.516;2022-10-31T20:41:56;101513.87;;;18.35;100.00
37878;BME280;23715;53.652;8.516;2022-10-31T20:46:57;101507.74;;;18.37;100.00
37878;BME280;23715;53.652;8.516;2022-10-31T20:52:03;101495.87;;;18.79;100.00
37878;BME280;23715;53.652;8.516;2022-10-31T20:56:59;101482.95;;;18.98;100.00
37878;BME280;23715;53.652;8.516;2022-10-31T21:01:59;101487.02;;;18.69;100.00
37878;BME280;23715;53.652;8.516;2022-10-31T21:06:59;101463.87;;;18.65;100.00
37878;BME280;23715;53.652;8.516;2022-10-31T21:12:00;101469.66;;;18.78;100.00
37878;BME280;23715;53.652;8.516;2022-10-31T21:17:00;101467.93;;;18.52;100.00
37878;BME280;23715;53.652;8.516;2022-10-31T21:22:02;101454.66;;;18.58;100.00
37878;BME280;23715;53.652;8.516;2022-10-31T21:27:02;101457.91;;;18.61;100.00
37878;BME280;23715;53.652;8.516;2022-10-31T21:32:02;101451.23;;;18.43;100.00
37878;BME280;23715;53.652;8.516;2022-10-31T21:37:02;101455.01;;;18.71;100.00
37878;BME280;23715;53.652;8.516;2022-10-31T21:42:02;101451.42;;;18.54;100.00
37878;BME280;23715;53.652;8.516;2022-10-31T21:47:03;101454.97;;;18.34;100.00
37878;BME280;23715;53.652;8.516;2022-10-31T21:52:04;101447.16;;;18.47;100.00
37878;BME280;23715;53.652;8.516;2022-10-31T21:57:04;101442.05;;;18.61;100.00
37878;BME280;23715;53.652;8.516;2022-10-31T22:02:07;101447.50;;;18.57;100.00
37878;BME280;23715;53.652;8.516;2022-10-31T22:07:07;101438.82;;;18.45;100.00
37878;BME280;23715;53.652;8.516;2022-10-31T22:12:07;101424.35;;;18.52;100.00
37878;BME280;23715;53.652;8.516;2022-10-31T22:17:10;101407.31;;;18.63;100.00
37878;BME280;23715;53.652;8.516;2022-10-31T22:22:11;101411.42;;;18.50;100.00
37878;BME280;23715;53.652;8.516;2022-10-31T22:27:11;101401.89;;;18.42;100.00
37878;BME280;23715;53.652;8.516;2022-10-31T22:32:11;101394.73;;;18.45;100.00
37878;BME280;23715;53.652;8.516;2022-10-31T22:37:12;101382.81;;;18.30;100.00
37878;BME280;23715;53.652;8.516;2022-10-31T22:42:11;101373.64;;;18.35;100.00
37878;BME280;23715;53.652;8.516;2022-10-31T22:47:11;101373.27;;;18.13;100.00
37878;BME280;23715;53.652;8.516;2022-10-31T22:52:12;101358.31;;;18.34;100.00
37878;BME280;23715;53.652;8.516;2022-10-31T22:57:12;101360.34;;;17.95;100.00
37878;BME280;23715;53.652;8.516;2022-10-31T23:02:12;101352.50;;;17.96;100.00
37878;BME280;23715;53.652;8.516;2022-10-31T23:07:13;101349.09;;;17.94;100.00
37878;BME280;23715;53.652;8.516;2022-10-31T23:12:13;101349.45;;;17.91;100.00
37878;BME280;23715;53.652;8.516;2022-10-31T23:17:31;101340.58;;;17.89;100.00
37878;BME280;23715;53.652;8.516;2022-10-31T23:22:31;101327.67;;;18.36;100.00
37878;BME280;23715;53.652;8.516;2022-10-31T23:27:31;101329.55;;;18.11;100.00
37878;BME280;23715;53.652;8.516;2022-10-31T23:32:33;101313.56;;;18.04;100.00
37878;BME280;23715;53.652;8.516;2022-10-31T23:37:35;101314.42;;;18.08;100.00
37878;BME280;23715;53.652;8.516;2022-10-31T23:42:36;101293.98;;;18.25;100.00
37878;BME280;23715;53.652;8.516;2022-10-31T23:47:37;101296.57;;;18.10;100.00
37878;BME280;23715;53.652;8.516;2022-10-31T23:52:37;101290.59;;;18.23;100.00
37878;BME280;23715;53.652;8.516;2022-10-31T23:57:37;101273.08;;;18.25;100.00
